createdAt,value
2023-11-14T00:01:21.876Z,11.71
2023-11-14T00:03:49.252Z,11.67
2023-11-14T00:06:16.236Z,11.75
2023-11-14T00:08:42.696Z,11.71
2023-11-14T00:11:11.085Z,11.73
2023-11-14T00:13:37.669Z,11.45
2023-11-14T00:16:04.654Z,11.81
2023-11-14T00:18:31.571Z,11.59
2023-11-14T00:20:59.123Z,11.87
2023-11-14T00:23:25.901Z,11.26
2023-11-14T00:25:52.423Z,11.60
2023-11-14T00:28:18.994Z,11.25
2023-11-14T00:30:45.804Z,11.74
2023-11-14T00:33:12.421Z,11.63
2023-11-14T00:35:40.046Z,11.81
2023-11-14T00:38:06.620Z,11.56
2023-11-14T00:40:33.103Z,11.74
2023-11-14T00:42:59.546Z,11.83
2023-11-14T00:45:28.264Z,11.59
2023-11-14T00:47:55.583Z,11.43
2023-11-14T00:50:22.104Z,11.36
2023-11-14T00:52:48.601Z,11.42
2023-11-14T00:55:15.048Z,11.70
2023-11-14T00:57:42.141Z,11.65
2023-11-14T01:00:11.820Z,11.70
2023-11-14T01:02:40.464Z,11.32
2023-11-14T01:05:07.670Z,11.71
2023-11-14T01:07:34.237Z,11.89
2023-11-14T01:10:00.811Z,11.66
2023-11-14T01:12:27.293Z,11.94
2023-11-14T01:14:53.792Z,11.90
2023-11-14T01:17:21.233Z,11.66
2023-11-14T01:19:48.532Z,11.88
2023-11-14T01:22:14.945Z,11.79
2023-11-14T01:24:41.706Z,11.72
2023-11-14T01:27:08.376Z,11.43
2023-11-14T01:29:34.770Z,11.67
2023-11-14T01:32:01.856Z,11.68
2023-11-14T01:34:29.377Z,11.39
2023-11-14T01:36:57.370Z,11.49
2023-11-14T01:39:25.112Z,11.59
2023-11-14T01:41:54.589Z,11.08
2023-11-14T01:44:21.021Z,11.63
2023-11-14T01:46:48.596Z,11.54
2023-11-14T01:49:15.096Z,11.32
2023-11-14T01:51:43.584Z,11.52
2023-11-14T01:54:11.915Z,11.81
2023-11-14T01:56:41.178Z,11.83
2023-11-14T01:59:08.417Z,11.78
2023-11-14T02:01:35.587Z,11.71
2023-11-14T02:04:08.329Z,11.88
2023-11-14T02:06:37.167Z,11.71
2023-11-14T02:09:04.149Z,11.67
2023-11-14T02:11:30.614Z,11.53
2023-11-14T02:13:57.112Z,12.14
2023-11-14T02:16:25.589Z,12.03
2023-11-14T02:18:52.158Z,11.91
2023-11-14T02:21:18.755Z,12.16
2023-11-14T02:23:49.116Z,12.17
2023-11-14T02:26:15.795Z,12.19
2023-11-14T02:28:42.339Z,12.11
2023-11-14T02:31:08.896Z,12.40
2023-11-14T02:33:39.066Z,12.09
2023-11-14T02:36:06.969Z,12.37
2023-11-14T02:38:33.433Z,12.38
2023-11-14T02:40:59.968Z,12.49
2023-11-14T02:43:26.468Z,12.37
2023-11-14T02:45:52.866Z,12.46
2023-11-14T02:48:20.297Z,12.30
2023-11-14T02:50:57.426Z,12.55
2023-11-14T02:53:24.367Z,12.38
2023-11-14T02:55:51.824Z,12.63
2023-11-14T02:58:20.072Z,12.51
2023-11-14T03:00:49.629Z,12.19
2023-11-14T03:03:17.208Z,12.45
2023-11-14T03:05:45.004Z,12.68
2023-11-14T03:08:11.952Z,12.66
2023-11-14T03:10:39.064Z,12.46
2023-11-14T03:13:07.778Z,12.16
2023-11-14T03:15:34.151Z,11.85
2023-11-14T03:18:00.897Z,11.83
2023-11-14T03:20:33.946Z,12.00
2023-11-14T03:23:02.034Z,11.91
2023-11-14T03:25:28.462Z,11.77
2023-11-14T03:27:55.127Z,11.45
2023-11-14T03:30:23.432Z,11.07
2023-11-14T03:32:50.271Z,10.98
2023-11-14T03:35:16.965Z,11.14
2023-11-14T03:37:43.458Z,11.21
2023-11-14T03:40:10.524Z,11.09
2023-11-14T03:42:37.413Z,11.34
2023-11-14T03:45:04.375Z,11.22
2023-11-14T03:47:31.164Z,11.13
2023-11-14T03:49:57.673Z,11.31
2023-11-14T03:52:26.632Z,11.38
2023-11-14T03:54:53.036Z,11.14
2023-11-14T03:57:20.792Z,11.20
2023-11-14T03:59:47.197Z,11.55
2023-11-14T04:02:14.124Z,11.30
2023-11-14T04:04:40.694Z,11.39
2023-11-14T04:07:07.090Z,11.55
2023-11-14T04:09:33.520Z,11.41
2023-11-14T04:12:00.081Z,11.42
2023-11-14T04:14:26.452Z,11.74
2023-11-14T04:16:53.129Z,11.71
2023-11-14T04:19:19.557Z,11.49
2023-11-14T04:21:45.972Z,11.73
2023-11-14T04:24:12.403Z,11.70
2023-11-14T04:26:38.864Z,11.73
2023-11-14T04:29:05.376Z,11.65
2023-11-14T04:31:31.847Z,11.48
2023-11-14T04:33:58.312Z,11.63
2023-11-14T04:36:25.035Z,11.25
2023-11-14T04:38:51.849Z,11.36
2023-11-14T04:41:19.109Z,11.67
2023-11-14T04:43:47.154Z,11.65
2023-11-14T04:46:13.848Z,11.55
2023-11-14T04:48:44.033Z,11.63
2023-11-14T04:51:11.056Z,11.63
2023-11-14T04:53:37.452Z,11.30
2023-11-14T04:56:04.246Z,11.42
2023-11-14T04:58:31.436Z,11.23
2023-11-14T05:00:58.752Z,11.34
2023-11-14T05:03:25.224Z,11.50
2023-11-14T05:05:51.672Z,11.44
2023-11-14T05:08:18.050Z,11.33
2023-11-14T05:10:45.013Z,11.31
2023-11-14T05:13:11.421Z,11.29
2023-11-14T05:15:37.801Z,11.28
2023-11-14T05:18:04.832Z,11.40
2023-11-14T05:20:31.277Z,11.37
2023-11-14T05:22:57.768Z,11.36
2023-11-14T05:25:24.159Z,11.11
2023-11-14T05:27:51.055Z,11.10
2023-11-14T05:30:17.578Z,11.03
2023-11-14T05:32:45.047Z,11.17
2023-11-14T05:35:11.461Z,11.02
2023-11-14T05:37:37.973Z,11.20
2023-11-14T05:40:04.894Z,11.20
2023-11-14T05:42:31.279Z,11.17
2023-11-14T05:44:57.653Z,11.11
2023-11-14T05:47:24.212Z,11.08
2023-11-14T05:49:50.705Z,11.02
2023-11-14T05:52:17.145Z,11.00
2023-11-14T05:54:43.531Z,10.97
2023-11-14T05:57:10.035Z,10.68
2023-11-14T05:59:36.457Z,10.96
2023-11-14T06:02:02.978Z,10.97
2023-11-14T06:04:32.473Z,10.73
2023-11-14T06:06:59.176Z,10.89
2023-11-14T06:09:25.859Z,10.69
2023-11-14T06:11:52.313Z,10.73
2023-11-14T06:14:18.815Z,10.50
2023-11-14T06:16:45.428Z,10.29
2023-11-14T06:19:12.426Z,10.69
2023-11-14T06:21:38.943Z,10.54
2023-11-14T06:24:05.607Z,10.61
2023-11-14T06:26:32.012Z,10.55
2023-11-14T06:28:58.470Z,10.61
2023-11-14T06:31:25.381Z,10.90
2023-11-14T06:33:51.822Z,10.58
2023-11-14T06:36:18.272Z,10.97
2023-11-14T06:38:44.732Z,10.87
2023-11-14T06:41:11.208Z,10.76
2023-11-14T06:43:37.664Z,11.03
2023-11-14T06:46:04.376Z,10.86
2023-11-14T06:48:30.805Z,11.00
2023-11-14T06:50:57.421Z,10.98
2023-11-14T06:53:23.901Z,10.41
2023-11-14T06:55:50.329Z,10.95
2023-11-14T06:58:16.762Z,10.71
2023-11-14T07:00:43.253Z,11.03
2023-11-14T07:03:13.588Z,10.92
2023-11-14T07:05:40.042Z,10.93
2023-11-14T07:08:06.469Z,11.02
2023-11-14T07:10:35.945Z,10.85
2023-11-14T07:13:03.418Z,11.03
2023-11-14T07:15:29.876Z,10.74
2023-11-14T07:17:56.387Z,10.95
2023-11-14T07:20:24.969Z,11.06
2023-11-14T07:22:52.309Z,11.16
2023-11-14T07:25:18.753Z,11.19
2023-11-14T07:27:48.017Z,11.15
2023-11-14T07:30:14.482Z,11.13
2023-11-14T07:32:41.182Z,11.24
2023-11-14T07:35:07.736Z,11.27
2023-11-14T07:37:35.603Z,11.20
2023-11-14T07:40:02.112Z,11.23
2023-11-14T07:42:28.478Z,11.12
2023-11-14T07:44:54.890Z,11.27
2023-11-14T07:47:21.841Z,11.37
2023-11-14T07:49:48.890Z,11.42
2023-11-14T07:52:15.407Z,11.44
2023-11-14T07:54:41.884Z,11.48
2023-11-14T07:57:08.732Z,11.40
2023-11-14T07:59:35.165Z,11.03
2023-11-14T08:02:02.800Z,11.26
2023-11-14T08:04:29.829Z,11.19
2023-11-14T08:06:56.826Z,11.16
2023-11-14T08:09:23.232Z,11.29
2023-11-14T08:11:49.694Z,11.35
2023-11-14T08:14:16.265Z,11.26
2023-11-14T08:16:42.819Z,11.45
2023-11-14T08:19:09.298Z,11.42
2023-11-14T08:21:35.701Z,11.37
2023-11-14T08:24:02.112Z,11.38
2023-11-14T08:26:28.797Z,11.44
2023-11-14T08:28:55.558Z,11.49
2023-11-14T08:31:22.090Z,11.66
2023-11-14T08:33:48.515Z,11.14
2023-11-14T08:36:15.942Z,11.62
2023-11-14T08:38:42.591Z,11.37
2023-11-14T08:41:09.206Z,11.70
2023-11-14T08:43:35.748Z,11.84
2023-11-14T08:46:02.335Z,11.56
2023-11-14T08:48:28.790Z,11.77
2023-11-14T08:50:55.543Z,11.94
2023-11-14T08:53:22.642Z,11.82
2023-11-14T08:55:49.527Z,11.75
2023-11-14T08:58:16.006Z,11.76
2023-11-14T09:00:42.419Z,11.87
2023-11-14T09:03:09.026Z,12.08
2023-11-14T09:05:35.949Z,12.13
2023-11-14T09:08:04.738Z,12.09
2023-11-14T09:10:31.245Z,12.26
2023-11-14T09:12:57.787Z,11.80
2023-11-14T09:15:24.281Z,11.97
2023-11-14T09:17:54.572Z,11.99
2023-11-14T09:20:23.224Z,11.93
2023-11-14T09:22:49.683Z,11.84
2023-11-14T09:25:16.565Z,11.75
2023-11-14T09:27:45.955Z,11.96
2023-11-14T09:30:15.252Z,11.93
2023-11-14T09:32:42.058Z,12.11
2023-11-14T09:35:08.768Z,12.34
2023-11-14T09:37:35.188Z,12.28
2023-11-14T09:40:01.606Z,12.04
2023-11-14T09:42:28.078Z,12.05
2023-11-14T09:44:55.519Z,12.38
2023-11-14T09:47:22.214Z,12.17
2023-11-14T09:49:50.335Z,12.31
2023-11-14T09:52:17.544Z,12.55
2023-11-14T09:54:44.931Z,12.81
2023-11-14T09:57:12.851Z,12.90
2023-11-14T09:59:42.855Z,13.02
2023-11-14T10:02:09.608Z,13.05
2023-11-14T10:04:36.015Z,13.11
2023-11-14T10:07:02.767Z,12.90
2023-11-14T10:09:29.495Z,13.08
2023-11-14T10:12:16.864Z,13.00
2023-11-14T10:14:47.130Z,12.64
2023-11-14T10:17:15.080Z,12.74
2023-11-14T10:20:01.468Z,12.55
2023-11-14T10:22:29.105Z,12.10
2023-11-14T10:24:56.127Z,12.27
2023-11-14T10:27:29.902Z,12.28
2023-11-14T10:29:56.767Z,12.23
2023-11-14T10:32:23.771Z,12.49
2023-11-14T10:34:52.744Z,12.41
2023-11-14T10:37:32.523Z,12.26
2023-11-14T10:39:59.067Z,12.04
2023-11-14T10:42:26.330Z,12.04
2023-11-14T10:45:08.072Z,11.90
2023-11-14T10:47:37.870Z,12.30
2023-11-14T10:50:24.143Z,12.28
2023-11-14T10:52:51.805Z,12.28
2023-11-14T10:55:19.217Z,12.35
2023-11-14T10:57:45.758Z,12.39
2023-11-14T11:00:13.022Z,12.42
2023-11-14T11:02:41.117Z,12.40
2023-11-14T11:05:16.598Z,12.33
2023-11-14T11:07:49.677Z,12.46
2023-11-14T11:10:17.677Z,12.40
2023-11-14T11:12:46.159Z,12.28
2023-11-14T11:15:12.796Z,12.29
2023-11-14T11:17:45.481Z,12.24
2023-11-14T11:20:24.883Z,12.10
2023-11-14T11:23:11.785Z,11.82
2023-11-14T11:25:42.641Z,11.81
2023-11-14T11:28:28.318Z,11.91
2023-11-14T11:31:17.504Z,11.69
2023-11-14T11:33:45.852Z,11.90
2023-11-14T11:36:21.493Z,12.14
2023-11-14T11:39:10.123Z,12.13
2023-11-14T11:41:55.938Z,11.79
2023-11-14T11:44:36.367Z,11.77
2023-11-14T11:47:02.846Z,11.84
2023-11-14T11:49:29.905Z,12.06
2023-11-14T11:52:10.113Z,12.22
2023-11-14T11:54:38.016Z,12.21
2023-11-14T11:57:04.392Z,12.30
2023-11-14T11:59:30.829Z,12.17
2023-11-14T12:02:03.119Z,12.16
2023-11-14T12:04:29.952Z,12.36
2023-11-14T12:06:56.570Z,12.30
2023-11-14T12:09:23.638Z,12.27
2023-11-14T12:11:50.048Z,12.29
2023-11-14T12:14:19.641Z,12.75
2023-11-14T12:16:48.967Z,13.25
2023-11-14T12:19:16.149Z,13.39
2023-11-14T12:21:45.963Z,13.23
2023-11-14T12:24:13.358Z,13.45
2023-11-14T12:26:40.061Z,13.70
2023-11-14T12:29:11.596Z,13.38
2023-11-14T12:31:38.318Z,13.19
2023-11-14T12:34:05.796Z,12.50
2023-11-14T12:36:34.300Z,12.91
2023-11-14T12:39:16.594Z,12.69
2023-11-14T12:41:44.324Z,12.57
2023-11-14T12:44:12.240Z,12.79
2023-11-14T12:46:40.685Z,12.75
2023-11-14T12:49:11.396Z,12.74
2023-11-14T12:51:44.197Z,12.67
2023-11-14T12:54:12.146Z,12.24
2023-11-14T12:56:40.461Z,12.31
2023-11-14T12:59:08.855Z,12.04
2023-11-14T13:01:36.426Z,12.04
2023-11-14T13:04:12.985Z,11.78
2023-11-14T13:06:42.964Z,11.65
2023-11-14T13:09:09.592Z,11.54
2023-11-14T13:11:36.609Z,10.99
2023-11-14T13:14:04.144Z,11.28
2023-11-14T13:16:31.703Z,11.29
2023-11-14T13:18:58.291Z,11.18
2023-11-14T13:21:25.724Z,11.28
2023-11-14T13:23:52.927Z,11.32
2023-11-14T13:26:23.742Z,11.43
2023-11-14T13:28:51.042Z,11.43
2023-11-14T13:31:18.171Z,11.31
2023-11-14T13:33:44.871Z,11.34
2023-11-14T13:36:16.055Z,11.40
2023-11-14T13:38:45.297Z,11.41
2023-11-14T13:43:42.484Z,10.95
2023-11-14T13:46:13.839Z,11.50
2023-11-14T13:48:48.214Z,11.31
2023-11-14T13:51:14.652Z,11.37
2023-11-14T13:53:41.105Z,10.95
2023-11-14T13:56:09.201Z,11.20
2023-11-14T13:58:36.761Z,11.29
2023-11-14T14:01:17.562Z,11.23
2023-11-14T14:03:44.244Z,11.03
2023-11-14T14:06:10.909Z,11.34
2023-11-14T14:08:38.130Z,11.34
2023-11-14T14:11:08.624Z,11.25
2023-11-14T14:13:36.224Z,11.24
2023-11-14T14:16:04.146Z,11.07
2023-11-14T14:18:32.593Z,11.23
2023-11-14T14:21:03.640Z,11.19
2023-11-14T14:23:30.895Z,11.22
2023-11-14T14:25:58.384Z,11.18
2023-11-14T14:28:30.494Z,11.14
2023-11-14T14:30:58.214Z,11.23
2023-11-14T14:33:24.657Z,11.15
2023-11-14T14:35:53.696Z,11.01
2023-11-14T14:38:23.972Z,11.03
2023-11-14T14:40:50.525Z,10.94
2023-11-14T14:43:17.390Z,10.79
2023-11-14T14:45:45.303Z,10.80
2023-11-14T14:48:11.893Z,10.89
2023-11-14T14:50:38.417Z,10.90
2023-11-14T14:53:05.817Z,10.91
2023-11-14T14:55:32.885Z,10.88
2023-11-14T14:58:05.017Z,10.80
2023-11-14T15:00:32.820Z,10.51
2023-11-14T15:03:03.135Z,10.78
2023-11-14T15:05:36.309Z,10.69
2023-11-14T15:08:07.403Z,10.49
2023-11-14T15:10:34.763Z,10.30
2023-11-14T15:13:01.243Z,10.50
2023-11-14T15:15:28.205Z,10.34
2023-11-14T15:17:57.779Z,10.30
2023-11-14T15:20:25.036Z,10.56
2023-11-14T15:22:52.540Z,10.57
2023-11-14T15:25:19.288Z,10.42
2023-11-14T15:27:45.720Z,10.25
2023-11-14T15:30:13.347Z,10.49
2023-11-14T15:32:39.849Z,10.32
2023-11-14T15:35:06.568Z,10.38
2023-11-14T15:37:33.010Z,10.28
2023-11-14T15:39:59.415Z,10.55
2023-11-14T15:42:26.662Z,10.25
2023-11-14T15:44:53.028Z,10.55
2023-11-14T15:47:19.463Z,10.39
2023-11-14T15:49:45.868Z,10.49
2023-11-14T15:52:12.606Z,10.50
2023-11-14T15:54:38.971Z,10.47
2023-11-14T15:57:06.433Z,10.47
2023-11-14T15:59:34.225Z,10.47
2023-11-14T16:02:02.167Z,10.40
2023-11-14T16:04:28.843Z,10.11
2023-11-14T16:06:55.379Z,10.42
2023-11-14T16:09:21.767Z,10.15
2023-11-14T16:11:49.040Z,10.31
2023-11-14T16:14:15.465Z,10.31
2023-11-14T16:16:41.906Z,10.33
2023-11-14T16:19:08.298Z,10.33
2023-11-14T16:21:34.840Z,10.46
2023-11-14T16:24:01.253Z,10.40
2023-11-14T16:26:30.323Z,10.22
2023-11-14T16:28:56.764Z,10.35
2023-11-14T16:31:23.275Z,10.48
2023-11-14T16:33:49.727Z,10.34
2023-11-14T16:36:16.190Z,10.40
2023-11-14T16:38:42.571Z,10.35
2023-11-14T16:41:09.048Z,10.20
2023-11-14T16:43:37.424Z,10.35
2023-11-14T16:46:04.962Z,10.46
2023-11-14T16:48:32.204Z,10.41
2023-11-14T16:50:59.197Z,10.23
2023-11-14T16:53:26.520Z,10.51
2023-11-14T16:55:53.148Z,10.21
2023-11-14T16:58:20.124Z,10.27
2023-11-14T17:00:46.616Z,10.24
2023-11-14T17:03:14.444Z,10.53
2023-11-14T17:05:41.675Z,10.52
2023-11-14T17:08:08.439Z,10.46
2023-11-14T17:10:34.970Z,10.18
2023-11-14T17:13:01.460Z,10.41
2023-11-14T17:15:27.845Z,10.21
2023-11-14T17:17:54.463Z,10.44
2023-11-14T17:20:21.008Z,10.63
2023-11-14T17:22:47.393Z,10.44
2023-11-14T17:25:15.377Z,10.71
2023-11-14T17:27:41.855Z,10.39
2023-11-14T17:30:08.599Z,10.61
2023-11-14T17:32:35.127Z,10.72
2023-11-14T17:35:01.871Z,10.24
2023-11-14T17:37:28.370Z,10.60
2023-11-14T17:39:55.385Z,10.37
2023-11-14T17:42:21.827Z,10.65
2023-11-14T17:44:49.370Z,10.42
2023-11-14T17:47:19.240Z,10.25
2023-11-14T17:49:45.785Z,10.24
2023-11-14T17:52:12.447Z,10.50
2023-11-14T17:54:41.257Z,10.26
2023-11-14T17:57:10.454Z,9.98
2023-11-14T17:59:37.190Z,10.48
2023-11-14T18:02:03.913Z,10.26
2023-11-14T18:04:30.742Z,10.38
2023-11-14T18:06:57.189Z,10.17
2023-11-14T18:09:28.540Z,10.21
2023-11-14T18:12:00.237Z,10.13
2023-11-14T18:14:26.665Z,10.25
2023-11-14T18:16:53.262Z,10.14
2023-11-14T18:19:19.728Z,10.23
2023-11-14T18:21:46.831Z,10.28
2023-11-14T18:24:13.237Z,10.34
2023-11-14T18:26:40.855Z,10.25
2023-11-14T18:29:07.391Z,10.22
2023-11-14T18:31:33.942Z,10.23
2023-11-14T18:34:00.402Z,10.19
2023-11-14T18:36:26.940Z,10.20
2023-11-14T18:38:53.383Z,9.97
2023-11-14T18:41:21.034Z,10.24
2023-11-14T18:43:47.723Z,10.15
2023-11-14T18:46:16.887Z,9.83
2023-11-14T18:48:44.004Z,10.14
2023-11-14T18:51:10.442Z,10.14
2023-11-14T18:53:36.857Z,10.14
2023-11-14T18:56:03.554Z,9.98
2023-11-14T18:58:29.956Z,9.87
2023-11-14T19:01:02.191Z,10.21
2023-11-14T19:03:29.067Z,10.23
2023-11-14T19:05:55.716Z,10.06
2023-11-14T19:08:22.124Z,10.09
2023-11-14T19:10:48.535Z,10.14
2023-11-14T19:13:15.098Z,10.11
2023-11-14T19:15:42.147Z,9.91
2023-11-14T19:18:09.025Z,10.09
2023-11-14T19:20:37.851Z,10.22
2023-11-14T19:23:40.387Z,10.11
2023-11-14T19:25:54.441Z,10.15
2023-11-14T19:28:20.909Z,10.09
2023-11-14T19:30:47.454Z,9.99
2023-11-14T19:33:14.127Z,10.08
2023-11-14T19:35:41.374Z,9.94
2023-11-14T19:38:08.973Z,9.93
2023-11-14T19:40:35.420Z,10.01
2023-11-14T19:43:03.805Z,10.04
2023-11-14T19:45:30.225Z,10.09
2023-11-14T19:47:56.756Z,9.91
2023-11-14T19:50:23.460Z,9.73
2023-11-14T19:52:50.072Z,9.64
2023-11-14T19:55:16.517Z,9.84
2023-11-14T19:57:43.418Z,9.89
2023-11-14T20:00:16.898Z,9.87
2023-11-14T20:02:46.656Z,9.62
2023-11-14T20:05:13.727Z,9.65
2023-11-14T20:07:41.201Z,9.90
2023-11-14T20:10:09.524Z,9.92
2023-11-14T20:12:37.018Z,9.65
2023-11-14T20:15:04.262Z,9.95
2023-11-14T20:17:30.789Z,9.64
2023-11-14T20:19:57.210Z,9.99
2023-11-14T20:22:23.888Z,9.98
2023-11-14T20:24:52.279Z,9.59
2023-11-14T20:27:18.801Z,9.85
2023-11-14T20:29:45.267Z,9.77
2023-11-14T20:32:11.698Z,9.81
2023-11-14T20:34:38.106Z,9.98
2023-11-14T20:37:04.689Z,10.05
2023-11-14T20:39:32.878Z,9.86
2023-11-14T20:42:00.705Z,9.84
2023-11-14T20:44:28.973Z,10.07
2023-11-14T20:46:55.695Z,10.17
2023-11-14T20:49:22.229Z,10.00
2023-11-14T20:51:48.637Z,10.11
2023-11-14T20:54:15.366Z,10.14
2023-11-14T20:56:42.274Z,9.81
2023-11-14T20:59:08.681Z,10.09
2023-11-14T21:01:35.226Z,10.08
2023-11-14T21:04:01.703Z,10.01
2023-11-14T21:06:29.831Z,10.21
2023-11-14T21:08:56.514Z,9.77
2023-11-14T21:11:23.256Z,10.27
2023-11-14T21:13:49.836Z,10.29
2023-11-14T21:16:16.461Z,10.22
2023-11-14T21:18:43.066Z,9.77
2023-11-14T21:21:09.955Z,10.21
2023-11-14T21:23:39.779Z,10.36
2023-11-14T21:26:07.134Z,10.21
2023-11-14T21:28:33.518Z,10.19
2023-11-14T21:31:07.868Z,10.19
2023-11-14T21:33:36.872Z,10.00
2023-11-14T21:36:07.866Z,9.49
2023-11-14T21:38:34.857Z,9.91
2023-11-14T21:41:01.749Z,9.96
2023-11-14T21:43:28.261Z,9.63
2023-11-14T21:45:55.216Z,9.78
2023-11-14T21:48:22.167Z,9.85
2023-11-14T21:50:49.340Z,9.69
2023-11-14T21:53:17.064Z,9.91
2023-11-14T21:55:47.166Z,9.89
2023-11-14T21:58:13.682Z,9.90
2023-11-14T22:00:40.135Z,9.85
2023-11-14T22:03:06.699Z,9.83
2023-11-14T22:05:34.595Z,9.78
2023-11-14T22:08:01.022Z,9.80
2023-11-14T22:10:27.517Z,9.83
2023-11-14T22:12:53.880Z,9.32
2023-11-14T22:15:20.363Z,9.84
2023-11-14T22:17:48.502Z,9.79
2023-11-14T22:20:15.358Z,9.69
2023-11-14T22:22:42.190Z,9.44
2023-11-14T22:25:09.338Z,9.65
2023-11-14T22:27:37.471Z,9.67
2023-11-14T22:30:05.469Z,9.61
2023-11-14T22:32:33.181Z,9.70
2023-11-14T22:35:01.100Z,9.53
2023-11-14T22:37:29.203Z,9.55
2023-11-14T22:39:56.562Z,9.49
2023-11-14T22:42:23.156Z,9.31
2023-11-14T22:44:49.720Z,9.18
2023-11-14T22:47:16.698Z,9.42
2023-11-14T22:49:44.405Z,9.35
2023-11-14T22:52:10.944Z,9.31
2023-11-14T22:54:37.677Z,9.02
2023-11-14T22:57:04.427Z,9.19
2023-11-14T22:59:31.119Z,8.94
2023-11-14T23:01:57.814Z,9.08
2023-11-14T23:04:26.430Z,8.63
2023-11-14T23:06:54.470Z,8.76
2023-11-14T23:09:21.005Z,9.03
2023-11-14T23:11:48.532Z,8.88
2023-11-14T23:14:15.455Z,8.68
2023-11-14T23:16:43.330Z,8.95
2023-11-14T23:19:10.376Z,8.80
2023-11-14T23:21:42.665Z,8.90
2023-11-14T23:24:12.645Z,8.84
2023-11-14T23:26:39.146Z,8.45
2023-11-14T23:29:07.238Z,8.62
2023-11-14T23:31:33.612Z,8.23
2023-11-14T23:34:00.054Z,8.31
2023-11-14T23:36:26.684Z,8.42
2023-11-14T23:38:56.121Z,8.27
2023-11-14T23:41:23.492Z,8.43
2023-11-14T23:43:50.817Z,8.45
2023-11-14T23:46:18.273Z,8.40
2023-11-14T23:48:44.711Z,8.35
2023-11-14T23:51:13.618Z,8.27
2023-11-14T23:53:40.667Z,8.31
2023-11-14T23:56:07.909Z,8.33
2023-11-14T23:58:34.327Z,8.41
